sensor_id;sensor_type;location;lat;lon;timestamp;temperature;humidity
26707;DHT22;14319;49.422;10.934;2023-02-24T00:01:53;8.40;92.30
26707;DHT22;14319;49.422;10.934;2023-02-24T00:03:59;8.30;92.60
26707;DHT22;14319;49.422;10.934;2023-02-24T00:06:00;8.40;92.50
26707;DHT22;14319;49.422;10.934;2023-02-24T00:08:02;8.40;92.70
26707;DHT22;14319;49.422;10.934;2023-02-24T00:10:03;8.40;92.80
26707;DHT22;14319;49.422;10.934;2023-02-24T00:12:06;8.50;93.00
26707;DHT22;14319;49.422;10.934;2023-02-24T00:14:11;8.50;93.10
26707;DHT22;14319;49.422;10.934;2023-02-24T00:16:17;8.40;93.40
26707;DHT22;14319;49.422;10.934;2023-02-24T00:18:18;8.50;93.60
26707;DHT22;14319;49.422;10.934;2023-02-24T00:20:19;8.50;93.80
26707;DHT22;14319;49.422;10.934;2023-02-24T00:22:19;8.50;93.80
26707;DHT22;14319;49.422;10.934;2023-02-24T00:24:21;8.40;94.20
26707;DHT22;14319;49.422;10.934;2023-02-24T00:26:22;8.50;94.60
26707;DHT22;14319;49.422;10.934;2023-02-24T00:28:22;8.40;94.80
26707;DHT22;14319;49.422;10.934;2023-02-24T00:30:23;8.40;95.30
26707;DHT22;14319;49.422;10.934;2023-02-24T00:32:23;8.40;95.70
26707;DHT22;14319;49.422;10.934;2023-02-24T00:34:28;8.40;96.00
26707;DHT22;14319;49.422;10.934;2023-02-24T00:36:30;8.40;96.00
26707;DHT22;14319;49.422;10.934;2023-02-24T00:38:34;8.40;96.20
26707;DHT22;14319;49.422;10.934;2023-02-24T00:40:35;8.50;96.30
26707;DHT22;14319;49.422;10.934;2023-02-24T00:42:37;8.40;95.90
26707;DHT22;14319;49.422;10.934;2023-02-24T00:44:43;8.40;96.10
26707;DHT22;14319;49.422;10.934;2023-02-24T00:46:45;8.40;96.00
26707;DHT22;14319;49.422;10.934;2023-02-24T00:48:47;8.50;96.20
26707;DHT22;14319;49.422;10.934;2023-02-24T00:50:48;8.50;96.00
26707;DHT22;14319;49.422;10.934;2023-02-24T00:52:51;8.50;96.00
26707;DHT22;14319;49.422;10.934;2023-02-24T00:54:52;8.50;95.90
26707;DHT22;14319;49.422;10.934;2023-02-24T00:56:53;8.40;96.00
26707;DHT22;14319;49.422;10.934;2023-02-24T00:58:56;8.40;96.30
26707;DHT22;14319;49.422;10.934;2023-02-24T01:00:56;8.40;96.30
26707;DHT22;14319;49.422;10.934;2023-02-24T01:02:57;8.40;96.30
26707;DHT22;14319;49.422;10.934;2023-02-24T01:04:58;8.50;95.90
26707;DHT22;14319;49.422;10.934;2023-02-24T01:07:00;8.50;96.30
26707;DHT22;14319;49.422;10.934;2023-02-24T01:09:01;8.40;96.50
26707;DHT22;14319;49.422;10.934;2023-02-24T01:11:08;8.40;96.70
26707;DHT22;14319;49.422;10.934;2023-02-24T01:13:27;8.30;96.90
26707;DHT22;14319;49.422;10.934;2023-02-24T01:15:28;8.40;96.70
26707;DHT22;14319;49.422;10.934;2023-02-24T01:17:30;8.40;96.50
26707;DHT22;14319;49.422;10.934;2023-02-24T01:19:32;8.40;96.20
26707;DHT22;14319;49.422;10.934;2023-02-24T01:21:35;8.60;96.20
26707;DHT22;14319;49.422;10.934;2023-02-24T01:23:36;8.60;95.80
26707;DHT22;14319;49.422;10.934;2023-02-24T01:25:36;8.70;95.50
26707;DHT22;14319;49.422;10.934;2023-02-24T01:27:38;8.70;95.10
26707;DHT22;14319;49.422;10.934;2023-02-24T01:29:41;8.60;95.10
26707;DHT22;14319;49.422;10.934;2023-02-24T01:31:42;8.60;95.30
26707;DHT22;14319;49.422;10.934;2023-02-24T01:33:46;8.50;95.60
26707;DHT22;14319;49.422;10.934;2023-02-24T01:35:47;8.50;96.00
26707;DHT22;14319;49.422;10.934;2023-02-24T01:37:48;8.40;96.20
26707;DHT22;14319;49.422;10.934;2023-02-24T01:39:49;8.40;96.50
26707;DHT22;14319;49.422;10.934;2023-02-24T01:41:49;8.50;96.20
26707;DHT22;14319;49.422;10.934;2023-02-24T01:45:58;8.30;96.70
26707;DHT22;14319;49.422;10.934;2023-02-24T01:48:03;8.20;97.40
26707;DHT22;14319;49.422;10.934;2023-02-24T01:50:05;8.20;97.90
26707;DHT22;14319;49.422;10.934;2023-02-24T01:52:21;8.10;98.00
26707;DHT22;14319;49.422;10.934;2023-02-24T01:54:26;8.20;98.10
26707;DHT22;14319;49.422;10.934;2023-02-24T01:56:30;8.20;98.10
26707;DHT22;14319;49.422;10.934;2023-02-24T01:58:32;8.20;98.10
26707;DHT22;14319;49.422;10.934;2023-02-24T02:00:33;8.20;97.50
26707;DHT22;14319;49.422;10.934;2023-02-24T02:02:38;8.20;97.90
26707;DHT22;14319;49.422;10.934;2023-02-24T02:04:54;8.20;97.70
26707;DHT22;14319;49.422;10.934;2023-02-24T02:06:57;8.20;97.90
26707;DHT22;14319;49.422;10.934;2023-02-24T02:08:58;8.10;97.90
26707;DHT22;14319;49.422;10.934;2023-02-24T02:11:03;8.10;97.90
26707;DHT22;14319;49.422;10.934;2023-02-24T02:13:07;8.10;97.60
26707;DHT22;14319;49.422;10.934;2023-02-24T02:15:10;8.10;98.00
26707;DHT22;14319;49.422;10.934;2023-02-24T02:17:15;8.00;97.90
26707;DHT22;14319;49.422;10.934;2023-02-24T02:19:29;8.10;98.00
26707;DHT22;14319;49.422;10.934;2023-02-24T02:24:25;8.00;97.90
26707;DHT22;14319;49.422;10.934;2023-02-24T02:26:55;8.00;97.90
26707;DHT22;14319;49.422;10.934;2023-02-24T02:36:43;7.90;99.10
26707;DHT22;14319;49.422;10.934;2023-02-24T02:39:10;8.00;98.50
26707;DHT22;14319;49.422;10.934;2023-02-24T02:41:28;8.00;98.20
26707;DHT22;14319;49.422;10.934;2023-02-24T02:43:37;8.10;97.80
26707;DHT22;14319;49.422;10.934;2023-02-24T02:45:39;8.10;97.80
26707;DHT22;14319;49.422;10.934;2023-02-24T02:47:53;8.20;97.30
26707;DHT22;14319;49.422;10.934;2023-02-24T02:50:11;8.20;97.10
26707;DHT22;14319;49.422;10.934;2023-02-24T02:52:41;8.20;96.80
26707;DHT22;14319;49.422;10.934;2023-02-24T02:54:48;8.20;96.60
26707;DHT22;14319;49.422;10.934;2023-02-24T02:57:20;8.20;96.30
26707;DHT22;14319;49.422;10.934;2023-02-24T02:59:27;8.20;96.10
26707;DHT22;14319;49.422;10.934;2023-02-24T03:01:32;8.20;96.30
26707;DHT22;14319;49.422;10.934;2023-02-24T03:03:40;8.20;96.30
26707;DHT22;14319;49.422;10.934;2023-02-24T03:05:50;8.20;96.00
26707;DHT22;14319;49.422;10.934;2023-02-24T03:07:52;8.10;96.20
26707;DHT22;14319;49.422;10.934;2023-02-24T03:09:59;8.10;96.40
26707;DHT22;14319;49.422;10.934;2023-02-24T03:12:05;8.10;96.60
26707;DHT22;14319;49.422;10.934;2023-02-24T03:14:10;8.10;96.50
26707;DHT22;14319;49.422;10.934;2023-02-24T03:16:13;8.10;96.30
26707;DHT22;14319;49.422;10.934;2023-02-24T03:18:23;8.10;96.30
26707;DHT22;14319;49.422;10.934;2023-02-24T03:20:35;8.10;95.90
26707;DHT22;14319;49.422;10.934;2023-02-24T03:22:41;8.00;96.20
26707;DHT22;14319;49.422;10.934;2023-02-24T03:24:44;8.00;96.40
26707;DHT22;14319;49.422;10.934;2023-02-24T03:27:02;8.00;96.30
26707;DHT22;14319;49.422;10.934;2023-02-24T03:29:18;8.10;96.20
26707;DHT22;14319;49.422;10.934;2023-02-24T03:31:30;8.00;95.80
26707;DHT22;14319;49.422;10.934;2023-02-24T03:33:38;8.10;96.10
26707;DHT22;14319;49.422;10.934;2023-02-24T03:35:41;8.10;95.70
26707;DHT22;14319;49.422;10.934;2023-02-24T03:37:43;8.10;95.60
26707;DHT22;14319;49.422;10.934;2023-02-24T03:39:44;8.10;95.70
26707;DHT22;14319;49.422;10.934;2023-02-24T03:42:02;8.00;95.50
26707;DHT22;14319;49.422;10.934;2023-02-24T03:44:07;8.00;95.50
26707;DHT22;14319;49.422;10.934;2023-02-24T03:46:10;7.90;96.80
26707;DHT22;14319;49.422;10.934;2023-02-24T03:48:12;7.80;96.00
26707;DHT22;14319;49.422;10.934;2023-02-24T03:50:16;7.70;96.60
26707;DHT22;14319;49.422;10.934;2023-02-24T03:52:41;7.70;97.20
26707;DHT22;14319;49.422;10.934;2023-02-24T03:55:10;7.70;97.20
26707;DHT22;14319;49.422;10.934;2023-02-24T03:59:57;7.80;96.90
26707;DHT22;14319;49.422;10.934;2023-02-24T04:02:28;7.70;96.70
26707;DHT22;14319;49.422;10.934;2023-02-24T04:04:41;7.60;97.30
26707;DHT22;14319;49.422;10.934;2023-02-24T04:07:04;7.70;97.30
26707;DHT22;14319;49.422;10.934;2023-02-24T04:14:11;7.50;98.40
26707;DHT22;14319;49.422;10.934;2023-02-24T04:16:23;7.50;98.80
26707;DHT22;14319;49.422;10.934;2023-02-24T04:18:30;7.50;98.70
26707;DHT22;14319;49.422;10.934;2023-02-24T04:20:33;7.50;98.00
26707;DHT22;14319;49.422;10.934;2023-02-24T04:22:37;7.50;98.20
26707;DHT22;14319;49.422;10.934;2023-02-24T04:24:40;7.60;98.00
26707;DHT22;14319;49.422;10.934;2023-02-24T04:26:43;7.60;97.30
26707;DHT22;14319;49.422;10.934;2023-02-24T04:28:45;7.70;97.50
26707;DHT22;14319;49.422;10.934;2023-02-24T04:30:51;7.70;96.80
26707;DHT22;14319;49.422;10.934;2023-02-24T04:32:53;7.80;96.50
26707;DHT22;14319;49.422;10.934;2023-02-24T04:35:08;7.80;96.20
26707;DHT22;14319;49.422;10.934;2023-02-24T04:37:13;7.70;96.30
26707;DHT22;14319;49.422;10.934;2023-02-24T04:39:16;7.60;96.30
26707;DHT22;14319;49.422;10.934;2023-02-24T04:41:18;7.70;96.50
26707;DHT22;14319;49.422;10.934;2023-02-24T04:43:22;7.80;95.70
26707;DHT22;14319;49.422;10.934;2023-02-24T04:45:26;7.90;95.80
26707;DHT22;14319;49.422;10.934;2023-02-24T04:47:27;7.90;95.50
26707;DHT22;14319;49.422;10.934;2023-02-24T04:49:28;7.90;95.60
26707;DHT22;14319;49.422;10.934;2023-02-24T04:51:28;7.90;95.30
26707;DHT22;14319;49.422;10.934;2023-02-24T04:53:32;7.90;96.30
26707;DHT22;14319;49.422;10.934;2023-02-24T04:55:39;7.80;95.10
26707;DHT22;14319;49.422;10.934;2023-02-24T04:57:40;7.80;95.10
26707;DHT22;14319;49.422;10.934;2023-02-24T04:59:41;7.80;95.70
26707;DHT22;14319;49.422;10.934;2023-02-24T05:01:42;7.60;95.90
26707;DHT22;14319;49.422;10.934;2023-02-24T05:03:43;7.50;97.00
26707;DHT22;14319;49.422;10.934;2023-02-24T05:05:52;7.50;96.90
26707;DHT22;14319;49.422;10.934;2023-02-24T05:08:06;7.40;97.00
26707;DHT22;14319;49.422;10.934;2023-02-24T05:10:07;7.40;97.30
26707;DHT22;14319;49.422;10.934;2023-02-24T05:12:08;7.40;97.50
26707;DHT22;14319;49.422;10.934;2023-02-24T05:14:10;7.50;97.30
26707;DHT22;14319;49.422;10.934;2023-02-24T05:16:16;7.40;96.90
26707;DHT22;14319;49.422;10.934;2023-02-24T05:18:17;7.40;97.20
26707;DHT22;14319;49.422;10.934;2023-02-24T05:20:18;7.40;96.40
26707;DHT22;14319;49.422;10.934;2023-02-24T05:22:37;7.40;96.90
26707;DHT22;14319;49.422;10.934;2023-02-24T05:24:37;7.40;96.40
26707;DHT22;14319;49.422;10.934;2023-02-24T05:26:40;7.40;96.40
26707;DHT22;14319;49.422;10.934;2023-02-24T05:28:41;7.40;96.50
26707;DHT22;14319;49.422;10.934;2023-02-24T05:30:42;7.40;96.80
26707;DHT22;14319;49.422;10.934;2023-02-24T05:32:43;7.40;96.50
26707;DHT22;14319;49.422;10.934;2023-02-24T05:34:44;7.40;96.70
26707;DHT22;14319;49.422;10.934;2023-02-24T05:36:45;7.30;97.00
26707;DHT22;14319;49.422;10.934;2023-02-24T05:38:47;7.30;97.10
26707;DHT22;14319;49.422;10.934;2023-02-24T05:40:48;7.30;96.60
26707;DHT22;14319;49.422;10.934;2023-02-24T05:42:48;7.30;97.10
26707;DHT22;14319;49.422;10.934;2023-02-24T05:44:51;7.40;97.20
26707;DHT22;14319;49.422;10.934;2023-02-24T05:46:54;7.40;96.70
26707;DHT22;14319;49.422;10.934;2023-02-24T05:48:59;7.40;96.80
26707;DHT22;14319;49.422;10.934;2023-02-24T05:51:04;7.40;96.40
26707;DHT22;14319;49.422;10.934;2023-02-24T05:53:07;7.50;96.20
26707;DHT22;14319;49.422;10.934;2023-02-24T05:55:09;7.50;96.10
26707;DHT22;14319;49.422;10.934;2023-02-24T05:57:15;7.60;95.80
26707;DHT22;14319;49.422;10.934;2023-02-24T05:59:18;7.60;95.60
26707;DHT22;14319;49.422;10.934;2023-02-24T06:01:20;7.60;95.80
26707;DHT22;14319;49.422;10.934;2023-02-24T06:03:21;7.60;95.70
26707;DHT22;14319;49.422;10.934;2023-02-24T06:05:30;7.60;95.50
26707;DHT22;14319;49.422;10.934;2023-02-24T06:07:33;7.50;95.80
26707;DHT22;14319;49.422;10.934;2023-02-24T06:09:34;7.60;95.30
26707;DHT22;14319;49.422;10.934;2023-02-24T06:11:35;7.60;95.10
26707;DHT22;14319;49.422;10.934;2023-02-24T06:13:37;7.50;95.80
26707;DHT22;14319;49.422;10.934;2023-02-24T06:15:37;7.40;95.60
26707;DHT22;14319;49.422;10.934;2023-02-24T06:17:38;7.40;95.70
26707;DHT22;14319;49.422;10.934;2023-02-24T06:19:39;7.40;96.00
26707;DHT22;14319;49.422;10.934;2023-02-24T06:21:41;7.40;95.60
26707;DHT22;14319;49.422;10.934;2023-02-24T06:23:41;7.40;95.60
26707;DHT22;14319;49.422;10.934;2023-02-24T06:25:42;7.40;96.00
26707;DHT22;14319;49.422;10.934;2023-02-24T06:27:42;7.50;95.70
26707;DHT22;14319;49.422;10.934;2023-02-24T06:29:50;7.50;95.50
26707;DHT22;14319;49.422;10.934;2023-02-24T06:31:51;7.50;95.30
26707;DHT22;14319;49.422;10.934;2023-02-24T06:33:53;7.50;95.40
26707;DHT22;14319;49.422;10.934;2023-02-24T06:35:59;7.50;95.10
26707;DHT22;14319;49.422;10.934;2023-02-24T06:37:59;7.60;95.30
26707;DHT22;14319;49.422;10.934;2023-02-24T06:40:00;7.60;94.80
26707;DHT22;14319;49.422;10.934;2023-02-24T06:42:01;7.70;94.90
26707;DHT22;14319;49.422;10.934;2023-02-24T06:44:07;7.70;94.40
26707;DHT22;14319;49.422;10.934;2023-02-24T06:46:11;7.70;94.10
26707;DHT22;14319;49.422;10.934;2023-02-24T06:48:11;7.70;94.20
26707;DHT22;14319;49.422;10.934;2023-02-24T06:50:12;7.60;94.10
26707;DHT22;14319;49.422;10.934;2023-02-24T06:52:13;7.50;94.70
26707;DHT22;14319;49.422;10.934;2023-02-24T06:54:17;7.40;95.20
26707;DHT22;14319;49.422;10.934;2023-02-24T06:56:18;7.50;95.60
26707;DHT22;14319;49.422;10.934;2023-02-24T06:58:19;7.50;95.20
26707;DHT22;14319;49.422;10.934;2023-02-24T07:00:20;7.60;94.70
26707;DHT22;14319;49.422;10.934;2023-02-24T07:02:21;7.70;94.70
26707;DHT22;14319;49.422;10.934;2023-02-24T07:04:24;7.70;94.80
26707;DHT22;14319;49.422;10.934;2023-02-24T07:06:25;7.80;94.10
26707;DHT22;14319;49.422;10.934;2023-02-24T07:08:27;7.80;94.10
26707;DHT22;14319;49.422;10.934;2023-02-24T07:10:28;7.80;94.20
26707;DHT22;14319;49.422;10.934;2023-02-24T07:12:29;7.80;94.60
26707;DHT22;14319;49.422;10.934;2023-02-24T07:14:29;7.90;94.60
26707;DHT22;14319;49.422;10.934;2023-02-24T07:16:31;7.90;94.00
26707;DHT22;14319;49.422;10.934;2023-02-24T07:18:34;7.80;94.30
26707;DHT22;14319;49.422;10.934;2023-02-24T07:20:41;7.80;94.30
26707;DHT22;14319;49.422;10.934;2023-02-24T07:22:46;7.90;94.30
26707;DHT22;14319;49.422;10.934;2023-02-24T07:24:47;8.00;94.30
26707;DHT22;14319;49.422;10.934;2023-02-24T07:26:47;8.00;93.40
26707;DHT22;14319;49.422;10.934;2023-02-24T07:28:52;8.00;93.70
26707;DHT22;14319;49.422;10.934;2023-02-24T07:30:54;8.00;94.10
26707;DHT22;14319;49.422;10.934;2023-02-24T07:32:56;8.00;94.00
26707;DHT22;14319;49.422;10.934;2023-02-24T07:34:57;8.10;93.20
26707;DHT22;14319;49.422;10.934;2023-02-24T07:36:59;8.10;93.80
26707;DHT22;14319;49.422;10.934;2023-02-24T07:39:05;8.00;93.10
26707;DHT22;14319;49.422;10.934;2023-02-24T07:41:12;8.00;94.30
26707;DHT22;14319;49.422;10.934;2023-02-24T07:43:15;8.10;94.20
26707;DHT22;14319;49.422;10.934;2023-02-24T07:45:19;8.10;93.80
26707;DHT22;14319;49.422;10.934;2023-02-24T07:47:20;8.20;93.80
26707;DHT22;14319;49.422;10.934;2023-02-24T07:49:22;8.20;93.90
26707;DHT22;14319;49.422;10.934;2023-02-24T07:51:27;8.20;93.90
26707;DHT22;14319;49.422;10.934;2023-02-24T07:53:29;8.20;93.10
26707;DHT22;14319;49.422;10.934;2023-02-24T07:55:29;8.20;93.20
26707;DHT22;14319;49.422;10.934;2023-02-24T07:57:30;8.30;93.30
26707;DHT22;14319;49.422;10.934;2023-02-24T07:59:34;8.30;93.30
26707;DHT22;14319;49.422;10.934;2023-02-24T08:01:36;8.30;93.00
26707;DHT22;14319;49.422;10.934;2023-02-24T08:03:41;8.30;92.60
26707;DHT22;14319;49.422;10.934;2023-02-24T08:05:41;8.30;92.80
26707;DHT22;14319;49.422;10.934;2023-02-24T08:07:44;8.30;92.70
26707;DHT22;14319;49.422;10.934;2023-02-24T08:09:49;8.30;92.60
26707;DHT22;14319;49.422;10.934;2023-02-24T08:12:09;8.30;92.90
26707;DHT22;14319;49.422;10.934;2023-02-24T08:14:14;8.20;92.70
26707;DHT22;14319;49.422;10.934;2023-02-24T08:16:14;8.10;93.60
26707;DHT22;14319;49.422;10.934;2023-02-24T08:18:15;8.10;93.40
26707;DHT22;14319;49.422;10.934;2023-02-24T08:20:20;8.10;92.60
26707;DHT22;14319;49.422;10.934;2023-02-24T08:22:21;8.30;93.40
26707;DHT22;14319;49.422;10.934;2023-02-24T08:24:27;8.30;92.50
26707;DHT22;14319;49.422;10.934;2023-02-24T08:26:29;8.20;91.80
26707;DHT22;14319;49.422;10.934;2023-02-24T08:28:30;8.20;91.70
26707;DHT22;14319;49.422;10.934;2023-02-24T08:30:33;8.20;92.20
26707;DHT22;14319;49.422;10.934;2023-02-24T08:32:39;8.10;92.40
26707;DHT22;14319;49.422;10.934;2023-02-24T08:34:44;8.30;92.60
26707;DHT22;14319;49.422;10.934;2023-02-24T08:36:50;8.30;90.80
26707;DHT22;14319;49.422;10.934;2023-02-24T08:38:55;8.20;91.30
26707;DHT22;14319;49.422;10.934;2023-02-24T08:40:59;8.10;93.10
26707;DHT22;14319;49.422;10.934;2023-02-24T08:45:16;8.00;92.80
26707;DHT22;14319;49.422;10.934;2023-02-24T08:47:17;7.90;92.90
26707;DHT22;14319;49.422;10.934;2023-02-24T08:49:21;8.00;93.60
26707;DHT22;14319;49.422;10.934;2023-02-24T08:51:25;8.20;93.40
26707;DHT22;14319;49.422;10.934;2023-02-24T08:53:28;8.20;92.60
26707;DHT22;14319;49.422;10.934;2023-02-24T08:55:31;8.30;92.20
26707;DHT22;14319;49.422;10.934;2023-02-24T08:57:32;8.30;90.90
26707;DHT22;14319;49.422;10.934;2023-02-24T08:59:36;8.30;91.80
26707;DHT22;14319;49.422;10.934;2023-02-24T09:01:47;8.30;91.40
26707;DHT22;14319;49.422;10.934;2023-02-24T09:03:57;8.20;91.10
26707;DHT22;14319;49.422;10.934;2023-02-24T09:06:04;7.90;92.40
26707;DHT22;14319;49.422;10.934;2023-02-24T09:08:04;8.10;92.80
26707;DHT22;14319;49.422;10.934;2023-02-24T09:10:13;8.30;92.60
26707;DHT22;14319;49.422;10.934;2023-02-24T09:12:17;8.40;92.50
26707;DHT22;14319;49.422;10.934;2023-02-24T09:14:32;8.60;92.20
26707;DHT22;14319;49.422;10.934;2023-02-24T09:16:35;8.60;90.60
26707;DHT22;14319;49.422;10.934;2023-02-24T09:18:51;8.60;90.60
26707;DHT22;14319;49.422;10.934;2023-02-24T09:21:11;8.60;91.20
26707;DHT22;14319;49.422;10.934;2023-02-24T09:23:35;8.60;90.70
26707;DHT22;14319;49.422;10.934;2023-02-24T09:25:45;8.60;90.80
26707;DHT22;14319;49.422;10.934;2023-02-24T09:27:53;8.40;90.40
26707;DHT22;14319;49.422;10.934;2023-02-24T09:29:55;8.60;92.30
26707;DHT22;14319;49.422;10.934;2023-02-24T09:32:09;8.70;90.10
26707;DHT22;14319;49.422;10.934;2023-02-24T09:34:13;8.80;89.00
26707;DHT22;14319;49.422;10.934;2023-02-24T09:36:19;8.80;88.50
26707;DHT22;14319;49.422;10.934;2023-02-24T09:38:27;8.90;89.30
26707;DHT22;14319;49.422;10.934;2023-02-24T09:40:48;8.90;89.00
26707;DHT22;14319;49.422;10.934;2023-02-24T09:42:49;8.90;89.30
26707;DHT22;14319;49.422;10.934;2023-02-24T09:45:04;9.10;88.50
26707;DHT22;14319;49.422;10.934;2023-02-24T09:47:27;9.30;88.40
26707;DHT22;14319;49.422;10.934;2023-02-24T09:49:59;9.30;86.90
26707;DHT22;14319;49.422;10.934;2023-02-24T09:52:03;9.50;85.90
26707;DHT22;14319;49.422;10.934;2023-02-24T09:54:15;9.50;85.40
26707;DHT22;14319;49.422;10.934;2023-02-24T09:56:32;9.30;83.70
26707;DHT22;14319;49.422;10.934;2023-02-24T09:58:58;9.30;84.90
26707;DHT22;14319;49.422;10.934;2023-02-24T10:03:27;9.20;83.50
26707;DHT22;14319;49.422;10.934;2023-02-24T10:05:53;9.30;84.60
26707;DHT22;14319;49.422;10.934;2023-02-24T10:07:58;9.50;84.40
26707;DHT22;14319;49.422;10.934;2023-02-24T10:10:24;9.60;83.80
26707;DHT22;14319;49.422;10.934;2023-02-24T10:12:33;9.60;84.30
26707;DHT22;14319;49.422;10.934;2023-02-24T10:15:04;9.80;84.50
26707;DHT22;14319;49.422;10.934;2023-02-24T10:17:19;9.90;83.20
26707;DHT22;14319;49.422;10.934;2023-02-24T10:19:28;10.00;83.80
26707;DHT22;14319;49.422;10.934;2023-02-24T10:21:44;10.20;83.30
26707;DHT22;14319;49.422;10.934;2023-02-24T10:24:06;10.30;82.70
26707;DHT22;14319;49.422;10.934;2023-02-24T10:26:19;10.20;80.70
26707;DHT22;14319;49.422;10.934;2023-02-24T10:31:07;10.40;81.40
26707;DHT22;14319;49.422;10.934;2023-02-24T10:33:29;10.50;81.20
26707;DHT22;14319;49.422;10.934;2023-02-24T10:35:30;10.60;81.60
26707;DHT22;14319;49.422;10.934;2023-02-24T10:37:36;10.10;79.80
26707;DHT22;14319;49.422;10.934;2023-02-24T10:39:36;10.10;80.50
26707;DHT22;14319;49.422;10.934;2023-02-24T10:41:44;10.00;81.00
26707;DHT22;14319;49.422;10.934;2023-02-24T10:43:54;10.20;80.70
26707;DHT22;14319;49.422;10.934;2023-02-24T10:45:57;10.30;80.30
26707;DHT22;14319;49.422;10.934;2023-02-24T10:48:22;10.10;79.80
26707;DHT22;14319;49.422;10.934;2023-02-24T10:50:30;10.30;81.10
26707;DHT22;14319;49.422;10.934;2023-02-24T10:52:37;10.30;79.30
26707;DHT22;14319;49.422;10.934;2023-02-24T10:54:57;10.20;81.30
26707;DHT22;14319;49.422;10.934;2023-02-24T10:57:27;10.20;79.20
26707;DHT22;14319;49.422;10.934;2023-02-24T10:59:50;10.40;81.50
26707;DHT22;14319;49.422;10.934;2023-02-24T11:02:13;10.60;79.20
26707;DHT22;14319;49.422;10.934;2023-02-24T11:04:33;10.50;79.70
26707;DHT22;14319;49.422;10.934;2023-02-24T11:07:10;10.60;80.30
26707;DHT22;14319;49.422;10.934;2023-02-24T11:09:29;10.60;80.50
26707;DHT22;14319;49.422;10.934;2023-02-24T11:11:34;10.60;80.10
26707;DHT22;14319;49.422;10.934;2023-02-24T11:13:58;10.60;79.50
26707;DHT22;14319;49.422;10.934;2023-02-24T11:16:18;10.60;78.30
26707;DHT22;14319;49.422;10.934;2023-02-24T11:18:39;10.50;77.70
26707;DHT22;14319;49.422;10.934;2023-02-24T11:20:51;10.40;78.50
26707;DHT22;14319;49.422;10.934;2023-02-24T11:22:53;10.50;79.20
26707;DHT22;14319;49.422;10.934;2023-02-24T11:24:55;10.60;78.90
26707;DHT22;14319;49.422;10.934;2023-02-24T11:26:56;10.60;78.70
26707;DHT22;14319;49.422;10.934;2023-02-24T11:31:31;10.30;77.50
26707;DHT22;14319;49.422;10.934;2023-02-24T11:34:30;10.30;79.00
26707;DHT22;14319;49.422;10.934;2023-02-24T11:36:29;10.20;78.60
26707;DHT22;14319;49.422;10.934;2023-02-24T11:38:45;9.90;77.50
26707;DHT22;14319;49.422;10.934;2023-02-24T11:40:50;9.80;78.40
26707;DHT22;14319;49.422;10.934;2023-02-24T11:43:16;9.80;78.30
26707;DHT22;14319;49.422;10.934;2023-02-24T11:45:42;9.60;78.60
26707;DHT22;14319;49.422;10.934;2023-02-24T11:47:52;9.50;76.50
26707;DHT22;14319;49.422;10.934;2023-02-24T11:52:11;9.40;77.80
26707;DHT22;14319;49.422;10.934;2023-02-24T11:54:14;9.60;78.90
26707;DHT22;14319;49.422;10.934;2023-02-24T12:00:40;9.90;77.50
26707;DHT22;14319;49.422;10.934;2023-02-24T12:02:53;9.90;76.00
26707;DHT22;14319;49.422;10.934;2023-02-24T12:07:19;10.00;76.90
26707;DHT22;14319;49.422;10.934;2023-02-24T12:09:27;9.90;75.80
26707;DHT22;14319;49.422;10.934;2023-02-24T12:12:23;10.00;77.00
26707;DHT22;14319;49.422;10.934;2023-02-24T12:16:11;10.20;77.50
26707;DHT22;14319;49.422;10.934;2023-02-24T12:18:32;10.10;76.60
26707;DHT22;14319;49.422;10.934;2023-02-24T12:22:53;9.90;76.50
26707;DHT22;14319;49.422;10.934;2023-02-24T12:24:54;10.00;75.30
26707;DHT22;14319;49.422;10.934;2023-02-24T12:27:25;9.80;76.00
26707;DHT22;14319;49.422;10.934;2023-02-24T12:29:54;10.00;76.90
26707;DHT22;14319;49.422;10.934;2023-02-24T12:32:33;10.10;76.80
26707;DHT22;14319;49.422;10.934;2023-02-24T12:35:15;10.30;76.60
26707;DHT22;14319;49.422;10.934;2023-02-24T12:46:34;11.00;74.40
26707;DHT22;14319;49.422;10.934;2023-02-24T12:55:29;10.80;73.20
26707;DHT22;14319;49.422;10.934;2023-02-24T13:00:13;10.60;73.60
26707;DHT22;14319;49.422;10.934;2023-02-24T13:09:16;10.70;74.10
26707;DHT22;14319;49.422;10.934;2023-02-24T13:16:33;11.10;72.60
26707;DHT22;14319;49.422;10.934;2023-02-24T13:18:35;11.10;72.10
26707;DHT22;14319;49.422;10.934;2023-02-24T13:20:38;11.10;72.60
26707;DHT22;14319;49.422;10.934;2023-02-24T13:22:42;11.20;73.00
26707;DHT22;14319;49.422;10.934;2023-02-24T13:27:27;11.40;72.60
26707;DHT22;14319;49.422;10.934;2023-02-24T13:29:28;11.40;71.80
26707;DHT22;14319;49.422;10.934;2023-02-24T13:31:48;11.50;71.20
26707;DHT22;14319;49.422;10.934;2023-02-24T13:33:49;11.40;71.40
26707;DHT22;14319;49.422;10.934;2023-02-24T13:40:23;11.30;70.90
26707;DHT22;14319;49.422;10.934;2023-02-24T13:42:28;11.30;72.10
26707;DHT22;14319;49.422;10.934;2023-02-24T13:44:29;11.20;70.70
26707;DHT22;14319;49.422;10.934;2023-02-24T13:49:02;10.70;72.90
26707;DHT22;14319;49.422;10.934;2023-02-24T13:56:36;10.50;71.80
26707;DHT22;14319;49.422;10.934;2023-02-24T13:58:58;10.60;72.30
26707;DHT22;14319;49.422;10.934;2023-02-24T14:01:15;10.50;73.60
26707;DHT22;14319;49.422;10.934;2023-02-24T14:03:19;10.50;70.80
26707;DHT22;14319;49.422;10.934;2023-02-24T14:05:31;10.50;72.50
26707;DHT22;14319;49.422;10.934;2023-02-24T14:07:36;10.50;72.50
26707;DHT22;14319;49.422;10.934;2023-02-24T14:09:44;10.50;71.10
26707;DHT22;14319;49.422;10.934;2023-02-24T14:11:51;10.40;71.70
26707;DHT22;14319;49.422;10.934;2023-02-24T14:13:55;10.20;72.70
26707;DHT22;14319;49.422;10.934;2023-02-24T14:15:57;10.30;72.90
26707;DHT22;14319;49.422;10.934;2023-02-24T14:18:04;10.10;72.90
26707;DHT22;14319;49.422;10.934;2023-02-24T14:20:18;10.30;72.40
26707;DHT22;14319;49.422;10.934;2023-02-24T14:22:20;9.90;73.40
26707;DHT22;14319;49.422;10.934;2023-02-24T14:24:21;9.90;74.30
26707;DHT22;14319;49.422;10.934;2023-02-24T14:26:22;9.80;72.10
26707;DHT22;14319;49.422;10.934;2023-02-24T14:28:34;9.80;73.80
26707;DHT22;14319;49.422;10.934;2023-02-24T14:30:37;9.90;73.30
26707;DHT22;14319;49.422;10.934;2023-02-24T14:32:38;9.80;73.40
26707;DHT22;14319;49.422;10.934;2023-02-24T14:34:39;9.80;73.70
26707;DHT22;14319;49.422;10.934;2023-02-24T14:36:42;9.70;72.90
26707;DHT22;14319;49.422;10.934;2023-02-24T14:38:44;9.70;74.00
26707;DHT22;14319;49.422;10.934;2023-02-24T14:40:47;9.80;74.10
26707;DHT22;14319;49.422;10.934;2023-02-24T14:42:48;9.70;73.60
26707;DHT22;14319;49.422;10.934;2023-02-24T14:44:52;9.80;73.40
26707;DHT22;14319;49.422;10.934;2023-02-24T14:46:55;10.00;73.80
26707;DHT22;14319;49.422;10.934;2023-02-24T14:48:56;10.10;72.30